sensor_id;sensor_type;location;lat;lon;timestamp;P1;durP1;ratioP1;P2;durP2;ratioP2
23800;SDS011;12081;48.614;10.226;2023-06-22T00:00:51;13.13;;;10.70;;
23800;SDS011;12081;48.614;10.226;2023-06-22T00:03:35;12.67;;;10.13;;
23800;SDS011;12081;48.614;10.226;2023-06-22T00:06:20;13.40;;;10.40;;
23800;SDS011;12081;48.614;10.226;2023-06-22T00:09:03;14.73;;;10.43;;
23800;SDS011;12081;48.614;10.226;2023-06-22T00:11:47;12.57;;;10.33;;
23800;SDS011;12081;48.614;10.226;2023-06-22T00:14:31;12.73;;;10.17;;
23800;SDS011;12081;48.614;10.226;2023-06-22T00:17:16;12.13;;;10.03;;
23800;SDS011;12081;48.614;10.226;2023-06-22T00:20:00;13.63;;;9.57;;
23800;SDS011;12081;48.614;10.226;2023-06-22T00:22:44;14.03;;;9.47;;
23800;SDS011;12081;48.614;10.226;2023-06-22T00:25:28;10.80;;;9.53;;
23800;SDS011;12081;48.614;10.226;2023-06-22T00:28:12;10.53;;;9.40;;
23800;SDS011;12081;48.614;10.226;2023-06-22T00:30:56;10.90;;;8.87;;
23800;SDS011;12081;48.614;10.226;2023-06-22T00:33:40;12.77;;;8.93;;
23800;SDS011;12081;48.614;10.226;2023-06-22T00:36:24;12.23;;;9.57;;
23800;SDS011;12081;48.614;10.226;2023-06-22T00:39:08;12.27;;;8.87;;
23800;SDS011;12081;48.614;10.226;2023-06-22T00:41:53;11.83;;;9.33;;
23800;SDS011;12081;48.614;10.226;2023-06-22T00:44:37;15.13;;;8.97;;
23800;SDS011;12081;48.614;10.226;2023-06-22T00:47:21;11.97;;;9.50;;
23800;SDS011;12081;48.614;10.226;2023-06-22T00:50:06;11.53;;;8.67;;
23800;SDS011;12081;48.614;10.226;2023-06-22T00:52:51;10.73;;;9.20;;
23800;SDS011;12081;48.614;10.226;2023-06-22T00:55:42;14.00;;;9.17;;
23800;SDS011;12081;48.614;10.226;2023-06-22T00:58:27;11.27;;;8.97;;
23800;SDS011;12081;48.614;10.226;2023-06-22T01:01:11;13.47;;;8.90;;
23800;SDS011;12081;48.614;10.226;2023-06-22T01:03:55;11.03;;;9.73;;
23800;SDS011;12081;48.614;10.226;2023-06-22T01:06:42;13.97;;;9.07;;
23800;SDS011;12081;48.614;10.226;2023-06-22T01:09:35;10.80;;;9.57;;
23800;SDS011;12081;48.614;10.226;2023-06-22T01:12:51;12.97;;;9.67;;
23800;SDS011;12081;48.614;10.226;2023-06-22T01:15:43;11.43;;;9.47;;
23800;SDS011;12081;48.614;10.226;2023-06-22T01:18:34;11.53;;;9.03;;
23800;SDS011;12081;48.614;10.226;2023-06-22T01:21:20;12.77;;;9.73;;
23800;SDS011;12081;48.614;10.226;2023-06-22T01:24:22;13.60;;;9.30;;
23800;SDS011;12081;48.614;10.226;2023-06-22T01:27:17;14.50;;;10.27;;
23800;SDS011;12081;48.614;10.226;2023-06-22T01:30:16;12.67;;;9.83;;
23800;SDS011;12081;48.614;10.226;2023-06-22T01:33:01;14.17;;;9.30;;
23800;SDS011;12081;48.614;10.226;2023-06-22T01:35:48;12.03;;;9.57;;
23800;SDS011;12081;48.614;10.226;2023-06-22T01:38:32;12.17;;;9.13;;
23800;SDS011;12081;48.614;10.226;2023-06-22T01:41:17;17.40;;;9.43;;
23800;SDS011;12081;48.614;10.226;2023-06-22T01:44:06;13.10;;;9.77;;
23800;SDS011;12081;48.614;10.226;2023-06-22T01:46:52;10.50;;;9.40;;
23800;SDS011;12081;48.614;10.226;2023-06-22T01:49:36;13.23;;;9.80;;
23800;SDS011;12081;48.614;10.226;2023-06-22T01:52:21;12.33;;;11.03;;
23800;SDS011;12081;48.614;10.226;2023-06-22T01:55:05;10.90;;;9.60;;
23800;SDS011;12081;48.614;10.226;2023-06-22T01:57:51;11.50;;;9.63;;
23800;SDS011;12081;48.614;10.226;2023-06-22T02:00:37;14.43;;;9.93;;
23800;SDS011;12081;48.614;10.226;2023-06-22T02:03:23;14.70;;;9.83;;
23800;SDS011;12081;48.614;10.226;2023-06-22T02:06:17;11.57;;;9.87;;
23800;SDS011;12081;48.614;10.226;2023-06-22T02:09:15;14.33;;;9.90;;
23800;SDS011;12081;48.614;10.226;2023-06-22T02:12:02;12.60;;;9.97;;
23800;SDS011;12081;48.614;10.226;2023-06-22T02:14:49;19.13;;;11.43;;
23800;SDS011;12081;48.614;10.226;2023-06-22T02:17:35;12.83;;;10.97;;
23800;SDS011;12081;48.614;10.226;2023-06-22T02:20:19;14.33;;;11.57;;
23800;SDS011;12081;48.614;10.226;2023-06-22T02:23:04;16.93;;;12.10;;
23800;SDS011;12081;48.614;10.226;2023-06-22T02:25:49;16.03;;;10.83;;
23800;SDS011;12081;48.614;10.226;2023-06-22T02:28:33;13.47;;;10.40;;
23800;SDS011;12081;48.614;10.226;2023-06-22T02:31:17;13.33;;;10.33;;
23800;SDS011;12081;48.614;10.226;2023-06-22T02:34:02;16.37;;;11.27;;
23800;SDS011;12081;48.614;10.226;2023-06-22T02:36:46;16.40;;;10.77;;
23800;SDS011;12081;48.614;10.226;2023-06-22T02:39:34;15.90;;;10.97;;
23800;SDS011;12081;48.614;10.226;2023-06-22T05:31:47;12.60;;;9.83;;
23800;SDS011;12081;48.614;10.226;2023-06-22T05:34:31;12.03;;;9.33;;
23800;SDS011;12081;48.614;10.226;2023-06-22T05:37:15;11.97;;;8.87;;
23800;SDS011;12081;48.614;10.226;2023-06-22T05:39:59;13.60;;;8.53;;
23800;SDS011;12081;48.614;10.226;2023-06-22T05:42:45;11.02;;;8.50;;
23800;SDS011;12081;48.614;10.226;2023-06-22T05:45:29;9.80;;;8.80;;
23800;SDS011;12081;48.614;10.226;2023-06-22T05:48:13;13.10;;;9.20;;
23800;SDS011;12081;48.614;10.226;2023-06-22T05:50:58;11.50;;;8.93;;
23800;SDS011;12081;48.614;10.226;2023-06-22T05:53:43;9.80;;;8.38;;
23800;SDS011;12081;48.614;10.226;2023-06-22T05:56:28;11.45;;;8.30;;
23800;SDS011;12081;48.614;10.226;2023-06-22T05:59:12;8.88;;;7.57;;
23800;SDS011;12081;48.614;10.226;2023-06-22T06:01:56;12.68;;;8.32;;
23800;SDS011;12081;48.614;10.226;2023-06-22T06:04:40;10.52;;;8.40;;
23800;SDS011;12081;48.614;10.226;2023-06-22T06:07:24;9.77;;;7.80;;
23800;SDS011;12081;48.614;10.226;2023-06-22T06:10:09;11.63;;;7.88;;
23800;SDS011;12081;48.614;10.226;2023-06-22T06:12:53;9.45;;;7.35;;
23800;SDS011;12081;48.614;10.226;2023-06-22T06:15:37;9.93;;;6.57;;
23800;SDS011;12081;48.614;10.226;2023-06-22T06:18:22;9.90;;;5.93;;
23800;SDS011;12081;48.614;10.226;2023-06-22T06:21:08;7.57;;;6.18;;
23800;SDS011;12081;48.614;10.226;2023-06-22T06:23:52;9.02;;;6.32;;
23800;SDS011;12081;48.614;10.226;2023-06-22T06:26:36;11.18;;;6.90;;
23800;SDS011;12081;48.614;10.226;2023-06-22T06:29:20;9.70;;;6.60;;
23800;SDS011;12081;48.614;10.226;2023-06-22T06:32:04;10.45;;;6.38;;
23800;SDS011;12081;48.614;10.226;2023-06-22T06:34:49;8.75;;;7.13;;
23800;SDS011;12081;48.614;10.226;2023-06-22T06:37:36;11.10;;;6.05;;
23800;SDS011;12081;48.614;10.226;2023-06-22T06:40:21;9.18;;;7.50;;
23800;SDS011;12081;48.614;10.226;2023-06-22T06:43:05;12.00;;;6.68;;
23800;SDS011;12081;48.614;10.226;2023-06-22T06:45:49;10.25;;;6.80;;
23800;SDS011;12081;48.614;10.226;2023-06-22T06:48:34;8.30;;;5.90;;
23800;SDS011;12081;48.614;10.226;2023-06-22T06:51:18;10.35;;;6.10;;
23800;SDS011;12081;48.614;10.226;2023-06-22T06:54:03;10.20;;;6.22;;
23800;SDS011;12081;48.614;10.226;2023-06-22T06:56:47;10.27;;;5.88;;
23800;SDS011;12081;48.614;10.226;2023-06-22T06:59:31;9.15;;;5.80;;
23800;SDS011;12081;48.614;10.226;2023-06-22T07:02:15;12.98;;;5.90;;
23800;SDS011;12081;48.614;10.226;2023-06-22T07:04:59;10.30;;;6.38;;
23800;SDS011;12081;48.614;10.226;2023-06-22T07:07:43;10.77;;;5.70;;
23800;SDS011;12081;48.614;10.226;2023-06-22T07:10:28;8.75;;;6.28;;
23800;SDS011;12081;48.614;10.226;2023-06-22T07:13:13;10.50;;;5.88;;
23800;SDS011;12081;48.614;10.226;2023-06-22T07:15:57;7.28;;;5.40;;
23800;SDS011;12081;48.614;10.226;2023-06-22T07:18:41;9.98;;;6.55;;
23800;SDS011;12081;48.614;10.226;2023-06-22T07:21:25;10.38;;;5.30;;
23800;SDS011;12081;48.614;10.226;2023-06-22T07:24:09;9.80;;;5.65;;
23800;SDS011;12081;48.614;10.226;2023-06-22T07:26:53;9.95;;;6.18;;
23800;SDS011;12081;48.614;10.226;2023-06-22T07:29:38;10.65;;;5.88;;
23800;SDS011;12081;48.614;10.226;2023-06-22T07:32:26;11.52;;;6.07;;
23800;SDS011;12081;48.614;10.226;2023-06-22T07:35:12;8.15;;;6.55;;
23800;SDS011;12081;48.614;10.226;2023-06-22T07:37:56;8.98;;;6.85;;
23800;SDS011;12081;48.614;10.226;2023-06-22T07:40:40;13.07;;;6.78;;
23800;SDS011;12081;48.614;10.226;2023-06-22T07:43:25;9.80;;;6.32;;
23800;SDS011;12081;48.614;10.226;2023-06-22T07:46:09;8.80;;;6.15;;
23800;SDS011;12081;48.614;10.226;2023-06-22T07:48:53;9.07;;;6.53;;
23800;SDS011;12081;48.614;10.226;2023-06-22T07:51:37;9.23;;;6.07;;
23800;SDS011;12081;48.614;10.226;2023-06-22T07:54:21;9.10;;;6.45;;
23800;SDS011;12081;48.614;10.226;2023-06-22T07:57:05;9.90;;;6.18;;
23800;SDS011;12081;48.614;10.226;2023-06-22T07:59:49;8.88;;;6.95;;
23800;SDS011;12081;48.614;10.226;2023-06-22T08:02:33;8.80;;;6.20;;
23800;SDS011;12081;48.614;10.226;2023-06-22T08:05:17;9.45;;;6.60;;
23800;SDS011;12081;48.614;10.226;2023-06-22T08:08:01;9.68;;;6.88;;
23800;SDS011;12081;48.614;10.226;2023-06-22T08:10:45;10.77;;;7.38;;
23800;SDS011;12081;48.614;10.226;2023-06-22T08:13:29;13.07;;;6.95;;
23800;SDS011;12081;48.614;10.226;2023-06-22T08:16:13;12.63;;;7.35;;
23800;SDS011;12081;48.614;10.226;2023-06-22T08:18:58;12.70;;;7.70;;
23800;SDS011;12081;48.614;10.226;2023-06-22T08:21:42;9.55;;;6.68;;
23800;SDS011;12081;48.614;10.226;2023-06-22T08:24:27;10.82;;;6.25;;
23800;SDS011;12081;48.614;10.226;2023-06-22T08:27:14;15.25;;;6.82;;
23800;SDS011;12081;48.614;10.226;2023-06-22T08:30:00;12.07;;;7.43;;
23800;SDS011;12081;48.614;10.226;2023-06-22T08:32:45;11.70;;;8.07;;
23800;SDS011;12081;48.614;10.226;2023-06-22T08:35:29;9.15;;;6.63;;
23800;SDS011;12081;48.614;10.226;2023-06-22T08:38:13;9.68;;;7.13;;
23800;SDS011;12081;48.614;10.226;2023-06-22T08:41:00;15.45;;;7.63;;
23800;SDS011;12081;48.614;10.226;2023-06-22T08:43:44;9.82;;;6.85;;
23800;SDS011;12081;48.614;10.226;2023-06-22T08:46:29;9.82;;;6.72;;
23800;SDS011;12081;48.614;10.226;2023-06-22T08:49:15;11.85;;;7.15;;
23800;SDS011;12081;48.614;10.226;2023-06-22T08:51:59;12.75;;;6.10;;
23800;SDS011;12081;48.614;10.226;2023-06-22T08:54:44;11.95;;;6.40;;
23800;SDS011;12081;48.614;10.226;2023-06-22T08:57:28;10.30;;;6.43;;
23800;SDS011;12081;48.614;10.226;2023-06-22T09:00:14;7.75;;;5.90;;
23800;SDS011;12081;48.614;10.226;2023-06-22T09:03:03;15.68;;;6.45;;
23800;SDS011;12081;48.614;10.226;2023-06-22T09:05:48;13.65;;;6.63;;
23800;SDS011;12081;48.614;10.226;2023-06-22T09:08:32;11.48;;;7.20;;
23800;SDS011;12081;48.614;10.226;2023-06-22T09:11:16;18.15;;;6.68;;
23800;SDS011;12081;48.614;10.226;2023-06-22T09:14:00;13.27;;;7.45;;
23800;SDS011;12081;48.614;10.226;2023-06-22T09:16:44;10.15;;;7.03;;
23800;SDS011;12081;48.614;10.226;2023-06-22T09:19:28;7.82;;;6.55;;
23800;SDS011;12081;48.614;10.226;2023-06-22T09:22:12;11.25;;;6.93;;
23800;SDS011;12081;48.614;10.226;2023-06-22T09:24:56;12.82;;;6.85;;
23800;SDS011;12081;48.614;10.226;2023-06-22T09:27:41;10.25;;;6.13;;
23800;SDS011;12081;48.614;10.226;2023-06-22T09:30:26;10.32;;;6.57;;
23800;SDS011;12081;48.614;10.226;2023-06-22T09:33:10;13.10;;;6.43;;
23800;SDS011;12081;48.614;10.226;2023-06-22T09:35:54;10.88;;;6.28;;
23800;SDS011;12081;48.614;10.226;2023-06-22T09:38:40;10.23;;;6.97;;
23800;SDS011;12081;48.614;10.226;2023-06-22T09:41:24;13.25;;;6.70;;
23800;SDS011;12081;48.614;10.226;2023-06-22T09:44:08;9.55;;;6.50;;
23800;SDS011;12081;48.614;10.226;2023-06-22T09:46:53;12.50;;;6.70;;
23800;SDS011;12081;48.614;10.226;2023-06-22T09:49:37;12.25;;;7.22;;
23800;SDS011;12081;48.614;10.226;2023-06-22T09:52:21;13.43;;;8.05;;
23800;SDS011;12081;48.614;10.226;2023-06-22T09:55:06;12.52;;;7.13;;
23800;SDS011;12081;48.614;10.226;2023-06-22T09:57:50;15.02;;;7.30;;
23800;SDS011;12081;48.614;10.226;2023-06-22T10:00:34;15.70;;;7.55;;
23800;SDS011;12081;48.614;10.226;2023-06-22T10:03:18;12.43;;;7.32;;
23800;SDS011;12081;48.614;10.226;2023-06-22T10:06:03;16.55;;;7.82;;
23800;SDS011;12081;48.614;10.226;2023-06-22T10:08:47;14.18;;;8.18;;
23800;SDS011;12081;48.614;10.226;2023-06-22T10:11:34;11.10;;;7.43;;
23800;SDS011;12081;48.614;10.226;2023-06-22T10:14:19;10.98;;;8.15;;
23800;SDS011;12081;48.614;10.226;2023-06-22T10:17:03;12.07;;;7.30;;
23800;SDS011;12081;48.614;10.226;2023-06-22T10:19:50;10.20;;;6.97;;
23800;SDS011;12081;48.614;10.226;2023-06-22T10:22:35;12.85;;;7.18;;
23800;SDS011;12081;48.614;10.226;2023-06-22T10:25:19;14.52;;;7.57;;
23800;SDS011;12081;48.614;10.226;2023-06-22T10:28:04;13.10;;;7.22;;
23800;SDS011;12081;48.614;10.226;2023-06-22T10:30:48;12.50;;;7.35;;
23800;SDS011;12081;48.614;10.226;2023-06-22T10:33:32;13.75;;;6.88;;
23800;SDS011;12081;48.614;10.226;2023-06-22T10:36:16;15.20;;;6.88;;
23800;SDS011;12081;48.614;10.226;2023-06-22T10:39:00;11.63;;;7.00;;
23800;SDS011;12081;48.614;10.226;2023-06-22T10:41:46;13.18;;;6.80;;
23800;SDS011;12081;48.614;10.226;2023-06-22T10:44:30;10.18;;;7.00;;
23800;SDS011;12081;48.614;10.226;2023-06-22T10:47:14;15.82;;;7.47;;
23800;SDS011;12081;48.614;10.226;2023-06-22T10:49:58;12.68;;;6.50;;
23800;SDS011;12081;48.614;10.226;2023-06-22T10:52:42;9.65;;;6.22;;
23800;SDS011;12081;48.614;10.226;2023-06-22T10:55:26;29.27;;;8.52;;
23800;SDS011;12081;48.614;10.226;2023-06-22T10:58:10;14.93;;;6.75;;
23800;SDS011;12081;48.614;10.226;2023-06-22T11:00:54;16.38;;;6.97;;
23800;SDS011;12081;48.614;10.226;2023-06-22T11:03:38;11.30;;;6.78;;
23800;SDS011;12081;48.614;10.226;2023-06-22T11:06:22;15.23;;;6.00;;
23800;SDS011;12081;48.614;10.226;2023-06-22T11:09:06;16.75;;;6.93;;
23800;SDS011;12081;48.614;10.226;2023-06-22T11:11:51;13.52;;;6.10;;
23800;SDS011;12081;48.614;10.226;2023-06-22T11:14:39;11.80;;;6.43;;
23800;SDS011;12081;48.614;10.226;2023-06-22T11:17:23;14.50;;;6.78;;
23800;SDS011;12081;48.614;10.226;2023-06-22T11:20:07;12.38;;;5.72;;
23800;SDS011;12081;48.614;10.226;2023-06-22T11:22:54;12.27;;;6.50;;
23800;SDS011;12081;48.614;10.226;2023-06-22T11:25:39;12.82;;;6.43;;
23800;SDS011;12081;48.614;10.226;2023-06-22T11:28:25;17.48;;;6.50;;
23800;SDS011;12081;48.614;10.226;2023-06-22T11:31:09;13.00;;;6.70;;
23800;SDS011;12081;48.614;10.226;2023-06-22T11:33:53;13.30;;;7.25;;
23800;SDS011;12081;48.614;10.226;2023-06-22T11:36:37;11.77;;;6.43;;
23800;SDS011;12081;48.614;10.226;2023-06-22T11:39:21;13.38;;;6.97;;
23800;SDS011;12081;48.614;10.226;2023-06-22T11:42:05;9.07;;;5.97;;
23800;SDS011;12081;48.614;10.226;2023-06-22T11:44:50;12.45;;;6.68;;
23800;SDS011;12081;48.614;10.226;2023-06-22T11:47:33;10.25;;;5.53;;
23800;SDS011;12081;48.614;10.226;2023-06-22T11:50:17;9.63;;;7.10;;
23800;SDS011;12081;48.614;10.226;2023-06-22T11:53:02;14.05;;;7.32;;
23800;SDS011;12081;48.614;10.226;2023-06-22T11:55:47;13.77;;;6.70;;
23800;SDS011;12081;48.614;10.226;2023-06-22T11:58:32;11.15;;;6.25;;
23800;SDS011;12081;48.614;10.226;2023-06-22T12:01:16;12.45;;;6.25;;
23800;SDS011;12081;48.614;10.226;2023-06-22T12:04:00;14.73;;;6.28;;
23800;SDS011;12081;48.614;10.226;2023-06-22T12:06:45;12.77;;;6.43;;
23800;SDS011;12081;48.614;10.226;2023-06-22T12:09:29;15.43;;;6.75;;
23800;SDS011;12081;48.614;10.226;2023-06-22T12:12:13;11.60;;;5.70;;
23800;SDS011;12081;48.614;10.226;2023-06-22T12:14:57;13.95;;;6.07;;
23800;SDS011;12081;48.614;10.226;2023-06-22T12:17:41;12.30;;;6.47;;
23800;SDS011;12081;48.614;10.226;2023-06-22T12:20:25;15.48;;;6.40;;
23800;SDS011;12081;48.614;10.226;2023-06-22T12:23:09;11.98;;;6.03;;
23800;SDS011;12081;48.614;10.226;2023-06-22T12:25:53;13.45;;;6.82;;
23800;SDS011;12081;48.614;10.226;2023-06-22T12:28:37;14.18;;;7.05;;
23800;SDS011;12081;48.614;10.226;2023-06-22T12:31:21;18.92;;;6.60;;
23800;SDS011;12081;48.614;10.226;2023-06-22T12:34:05;16.73;;;6.47;;
23800;SDS011;12081;48.614;10.226;2023-06-22T12:36:49;14.75;;;5.85;;
23800;SDS011;12081;48.614;10.226;2023-06-22T12:39:33;12.73;;;5.85;;
23800;SDS011;12081;48.614;10.226;2023-06-22T12:42:17;10.65;;;6.05;;
23800;SDS011;12081;48.614;10.226;2023-06-22T12:45:01;13.05;;;6.10;;
23800;SDS011;12081;48.614;10.226;2023-06-22T12:47:46;14.88;;;6.10;;
23800;SDS011;12081;48.614;10.226;2023-06-22T12:50:30;11.80;;;5.57;;
23800;SDS011;12081;48.614;10.226;2023-06-22T12:53:14;10.98;;;5.72;;
23800;SDS011;12081;48.614;10.226;2023-06-22T12:55:58;14.95;;;6.22;;
23800;SDS011;12081;48.614;10.226;2023-06-22T12:58:42;12.80;;;5.57;;
23800;SDS011;12081;48.614;10.226;2023-06-22T13:01:26;19.02;;;6.55;;
23800;SDS011;12081;48.614;10.226;2023-06-22T13:04:11;17.27;;;6.10;;
23800;SDS011;12081;48.614;10.226;2023-06-22T13:06:58;13.93;;;6.22;;
23800;SDS011;12081;48.614;10.226;2023-06-22T13:09:42;11.10;;;5.90;;
23800;SDS011;12081;48.614;10.226;2023-06-22T13:12:26;12.38;;;5.63;;
23800;SDS011;12081;48.614;10.226;2023-06-22T13:15:11;11.93;;;5.88;;
23800;SDS011;12081;48.614;10.226;2023-06-22T13:17:55;11.85;;;5.38;;
23800;SDS011;12081;48.614;10.226;2023-06-22T13:20:39;12.95;;;6.57;;
23800;SDS011;12081;48.614;10.226;2023-06-22T13:23:23;13.40;;;6.10;;
23800;SDS011;12081;48.614;10.226;2023-06-22T13:26:07;16.48;;;5.63;;
23800;SDS011;12081;48.614;10.226;2023-06-22T13:28:52;16.17;;;6.18;;
23800;SDS011;12081;48.614;10.226;2023-06-22T13:31:36;9.60;;;5.68;;
23800;SDS011;12081;48.614;10.226;2023-06-22T13:34:20;15.43;;;5.85;;
23800;SDS011;12081;48.614;10.226;2023-06-22T13:37:05;19.88;;;6.50;;
23800;SDS011;12081;48.614;10.226;2023-06-22T13:39:49;11.82;;;6.03;;
23800;SDS011;12081;48.614;10.226;2023-06-22T13:42:33;15.88;;;6.13;;
23800;SDS011;12081;48.614;10.226;2023-06-22T13:45:18;16.85;;;6.70;;
23800;SDS011;12081;48.614;10.226;2023-06-22T13:48:03;11.88;;;5.35;;
23800;SDS011;12081;48.614;10.226;2023-06-22T13:50:47;14.40;;;6.15;;
23800;SDS011;12081;48.614;10.226;2023-06-22T13:53:31;12.75;;;6.38;;
23800;SDS011;12081;48.614;10.226;2023-06-22T13:56:15;13.02;;;6.00;;
23800;SDS011;12081;48.614;10.226;2023-06-22T13:58:59;12.82;;;5.90;;
23800;SDS011;12081;48.614;10.226;2023-06-22T14:01:43;10.20;;;5.50;;
23800;SDS011;12081;48.614;10.226;2023-06-22T14:04:27;15.73;;;6.03;;
23800;SDS011;12081;48.614;10.226;2023-06-22T14:07:12;10.00;;;6.05;;
23800;SDS011;12081;48.614;10.226;2023-06-22T14:09:56;15.68;;;6.78;;
23800;SDS011;12081;48.614;10.226;2023-06-22T14:12:41;16.13;;;6.57;;
23800;SDS011;12081;48.614;10.226;2023-06-22T14:15:25;12.40;;;6.00;;
23800;SDS011;12081;48.614;10.226;2023-06-22T14:18:10;13.45;;;6.32;;
23800;SDS011;12081;48.614;10.226;2023-06-22T14:20:54;11.73;;;5.97;;
23800;SDS011;12081;48.614;10.226;2023-06-22T14:23:38;13.90;;;6.45;;
23800;SDS011;12081;48.614;10.226;2023-06-22T14:26:22;17.00;;;6.72;;
23800;SDS011;12081;48.614;10.226;2023-06-22T14:29:06;12.43;;;5.72;;
23800;SDS011;12081;48.614;10.226;2023-06-22T14:31:50;11.38;;;5.97;;
23800;SDS011;12081;48.614;10.226;2023-06-22T14:34:34;12.02;;;6.28;;
23800;SDS011;12081;48.614;10.226;2023-06-22T14:37:19;16.02;;;7.07;;
23800;SDS011;12081;48.614;10.226;2023-06-22T14:40:03;13.02;;;6.28;;
23800;SDS011;12081;48.614;10.226;2023-06-22T14:42:47;14.90;;;5.68;;
23800;SDS011;12081;48.614;10.226;2023-06-22T14:45:32;15.90;;;6.22;;
23800;SDS011;12081;48.614;10.226;2023-06-22T14:48:16;16.10;;;6.78;;
23800;SDS011;12081;48.614;10.226;2023-06-22T14:51:00;15.20;;;6.93;;
23800;SDS011;12081;48.614;10.226;2023-06-22T14:53:44;13.75;;;6.72;;
23800;SDS011;12081;48.614;10.226;2023-06-22T14:56:29;16.13;;;6.38;;
23800;SDS011;12081;48.614;10.226;2023-06-22T14:59:13;14.30;;;6.57;;
23800;SDS011;12081;48.614;10.226;2023-06-22T15:01:57;13.25;;;6.85;;
23800;SDS011;12081;48.614;10.226;2023-06-22T15:04:41;12.55;;;6.30;;
23800;SDS011;12081;48.614;10.226;2023-06-22T15:07:25;14.27;;;7.15;;
23800;SDS011;12081;48.614;10.226;2023-06-22T15:10:09;10.30;;;6.45;;
23800;SDS011;12081;48.614;10.226;2023-06-22T15:12:53;15.57;;;6.63;;
23800;SDS011;12081;48.614;10.226;2023-06-22T15:15:37;12.90;;;6.78;;
23800;SDS011;12081;48.614;10.226;2023-06-22T15:18:21;11.75;;;6.00;;
23800;SDS011;12081;48.614;10.226;2023-06-22T15:21:05;17.60;;;7.30;;
23800;SDS011;12081;48.614;10.226;2023-06-22T15:23:49;12.50;;;6.40;;
23800;SDS011;12081;48.614;10.226;2023-06-22T15:26:33;14.02;;;6.47;;
23800;SDS011;12081;48.614;10.226;2023-06-22T15:29:18;13.63;;;6.82;;
23800;SDS011;12081;48.614;10.226;2023-06-22T15:32:02;14.98;;;6.63;;
23800;SDS011;12081;48.614;10.226;2023-06-22T15:34:46;14.18;;;6.65;;
23800;SDS011;12081;48.614;10.226;2023-06-22T15:37:30;16.00;;;7.32;;
23800;SDS011;12081;48.614;10.226;2023-06-22T15:40:14;12.73;;;7.32;;
23800;SDS011;12081;48.614;10.226;2023-06-22T15:42:58;16.67;;;6.53;;
23800;SDS011;12081;48.614;10.226;2023-06-22T15:45:42;13.45;;;6.32;;
23800;SDS011;12081;48.614;10.226;2023-06-22T15:48:26;13.52;;;6.85;;
23800;SDS011;12081;48.614;10.226;2023-06-22T15:51:11;9.98;;;6.10;;
23800;SDS011;12081;48.614;10.226;2023-06-22T15:53:55;18.95;;;7.07;;
23800;SDS011;12081;48.614;10.226;2023-06-22T15:56:39;14.07;;;6.45;;
23800;SDS011;12081;48.614;10.226;2023-06-22T15:59:23;10.70;;;6.00;;
23800;SDS011;12081;48.614;10.226;2023-06-22T16:02:07;12.98;;;6.45;;
23800;SDS011;12081;48.614;10.226;2023-06-22T16:04:52;14.18;;;6.47;;
23800;SDS011;12081;48.614;10.226;2023-06-22T16:07:38;18.33;;;6.68;;
23800;SDS011;12081;48.614;10.226;2023-06-22T16:10:22;11.93;;;6.60;;
23800;SDS011;12081;48.614;10.226;2023-06-22T16:13:06;15.35;;;7.43;;
23800;SDS011;12081;48.614;10.226;2023-06-22T16:15:50;19.95;;;6.88;;
23800;SDS011;12081;48.614;10.226;2023-06-22T16:18:35;14.63;;;7.32;;
23800;SDS011;12081;48.614;10.226;2023-06-22T16:21:19;13.70;;;7.13;;
23800;SDS011;12081;48.614;10.226;2023-06-22T16:24:04;12.82;;;7.07;;
23800;SDS011;12081;48.614;10.226;2023-06-22T16:26:50;13.77;;;6.63;;
23800;SDS011;12081;48.614;10.226;2023-06-22T16:29:34;13.25;;;7.43;;
23800;SDS011;12081;48.614;10.226;2023-06-22T16:32:20;16.08;;;7.35;;
23800;SDS011;12081;48.614;10.226;2023-06-22T16:35:04;14.52;;;7.28;;
23800;SDS011;12081;48.614;10.226;2023-06-22T16:37:48;22.20;;;7.32;;
23800;SDS011;12081;48.614;10.226;2023-06-22T16:40:33;14.93;;;7.68;;
23800;SDS011;12081;48.614;10.226;2023-06-22T16:43:18;14.18;;;7.18;;
23800;SDS011;12081;48.614;10.226;2023-06-22T16:46:04;11.98;;;7.57;;
23800;SDS011;12081;48.614;10.226;2023-06-22T16:48:51;22.52;;;7.93;;
23800;SDS011;12081;48.614;10.226;2023-06-22T16:51:36;12.70;;;7.97;;
23800;SDS011;12081;48.614;10.226;2023-06-22T16:54:19;17.88;;;7.68;;
23800;SDS011;12081;48.614;10.226;2023-06-22T16:57:04;16.10;;;7.65;;
23800;SDS011;12081;48.614;10.226;2023-06-22T16:59:51;15.45;;;7.55;;
23800;SDS011;12081;48.614;10.226;2023-06-22T17:02:42;13.60;;;7.60;;
23800;SDS011;12081;48.614;10.226;2023-06-22T17:05:30;15.88;;;7.72;;
23800;SDS011;12081;48.614;10.226;2023-06-22T17:08:15;16.77;;;8.90;;
23800;SDS011;12081;48.614;10.226;2023-06-22T17:11:00;17.48;;;8.77;;
23800;SDS011;12081;48.614;10.226;2023-06-22T17:13:45;15.35;;;8.02;;
23800;SDS011;12081;48.614;10.226;2023-06-22T17:16:31;12.85;;;7.63;;
23800;SDS011;12081;48.614;10.226;2023-06-22T17:19:15;16.75;;;7.05;;
23800;SDS011;12081;48.614;10.226;2023-06-22T17:22:00;13.68;;;5.50;;
23800;SDS011;12081;48.614;10.226;2023-06-22T17:24:44;13.60;;;5.90;;
23800;SDS011;12081;48.614;10.226;2023-06-22T17:27:30;11.00;;;5.20;;
23800;SDS011;12081;48.614;10.226;2023-06-22T17:30:17;18.10;;;5.70;;
23800;SDS011;12081;48.614;10.226;2023-06-22T17:33:07;11.40;;;4.50;;
23800;SDS011;12081;48.614;10.226;2023-06-22T17:35:54;10.48;;;4.60;;
23800;SDS011;12081;48.614;10.226;2023-06-22T17:38:39;11.02;;;4.93;;
23800;SDS011;12081;48.614;10.226;2023-06-22T17:41:31;13.73;;;5.68;;
23800;SDS011;12081;48.614;10.226;2023-06-22T17:44:18;13.95;;;5.07;;
23800;SDS011;12081;48.614;10.226;2023-06-22T17:47:06;10.73;;;4.45;;
23800;SDS011;12081;48.614;10.226;2023-06-22T17:49:50;7.95;;;4.35;;
23800;SDS011;12081;48.614;10.226;2023-06-22T17:52:34;13.63;;;5.32;;
23800;SDS011;12081;48.614;10.226;2023-06-22T17:55:21;14.95;;;5.13;;
23800;SDS011;12081;48.614;10.226;2023-06-22T17:58:06;12.80;;;5.13;;
23800;SDS011;12081;48.614;10.226;2023-06-22T18:00:51;16.83;;;5.15;;
23800;SDS011;12081;48.614;10.226;2023-06-22T18:03:34;12.27;;;4.40;;
23800;SDS011;12081;48.614;10.226;2023-06-22T18:06:20;17.50;;;6.50;;
23800;SDS011;12081;48.614;10.226;2023-06-22T18:09:07;29.95;;;6.78;;
23800;SDS011;12081;48.614;10.226;2023-06-22T18:11:52;21.73;;;6.82;;
23800;SDS011;12081;48.614;10.226;2023-06-22T18:14:39;19.23;;;6.45;;
23800;SDS011;12081;48.614;10.226;2023-06-22T18:17:25;23.33;;;7.72;;
23800;SDS011;12081;48.614;10.226;2023-06-22T18:20:10;20.05;;;6.82;;
23800;SDS011;12081;48.614;10.226;2023-06-22T18:22:55;21.63;;;6.85;;
23800;SDS011;12081;48.614;10.226;2023-06-22T18:25:41;13.95;;;5.80;;
23800;SDS011;12081;48.614;10.226;2023-06-22T18:28:28;18.97;;;6.07;;
23800;SDS011;12081;48.614;10.226;2023-06-22T18:31:14;12.53;;;4.77;;
23800;SDS011;12081;48.614;10.226;2023-06-22T18:33:59;15.30;;;5.83;;
23800;SDS011;12081;48.614;10.226;2023-06-22T18:36:51;18.17;;;5.37;;
23800;SDS011;12081;48.614;10.226;2023-06-22T18:39:39;12.57;;;4.70;;
23800;SDS011;12081;48.614;10.226;2023-06-22T18:42:27;15.90;;;6.07;;
23800;SDS011;12081;48.614;10.226;2023-06-22T18:45:26;19.00;;;5.80;;
23800;SDS011;12081;48.614;10.226;2023-06-22T18:48:11;15.00;;;5.33;;
23800;SDS011;12081;48.614;10.226;2023-06-22T18:51:09;13.30;;;5.17;;
23800;SDS011;12081;48.614;10.226;2023-06-22T18:54:03;13.63;;;5.40;;
23800;SDS011;12081;48.614;10.226;2023-06-22T18:56:52;11.93;;;4.80;;